TJSJTDPD

Guest
Details From TJSJ - Luis Munoz Marin Intl
To TDPD - Douglas-Charles
Flight Number -
Tags decoded
Created
Modified
Stats Distance 324 nm / 601 km
Max Altitude 0 ft / 0 m
Waypoints 4
Social Downloads 0
Likes 0
Share

Download

Looking for another format? Having issues loading an existing format? Contact us
Advertisement - Login to hide

Notes

Requested: TJSJ TUKRE SNOOZ TDPD

Route

TJSJ TUKRE SNOOZ TDPD

ID Type Via Altitude (ft/m) Position (lat/lon) Dist (leg/tot) Name
O TJSJ APT - 0 / 0 18.43870 / -66.00220 - / 0 nm Luis Munoz Marin Intl
TUKRE FIX - 0 / 0 18.48070 / -65.91140 5 / 5 nm
SNOOZ FIX - 0 / 0 17.81500 / -65.08390 61 / 67 nm
O TDPD APT - 0 / 0 15.54660 / -61.30140 256 / 324 nm Douglas-Charles

Altitude Profile

Advertisement - Login to hide

Weather


0- 5 10 15 20 25 30 35+ Temperature / °C

Clouds and Precipitation
Forecast for 2024-02-27 00:00 UTC. Updated 6 hours ago

Ground ~20,000 ft ~40,000 ft Winds

TJSJ

Details ICAO TJSJ (SJU)
Name Luis Munoz Marin Intl
Region USA (Puerto Rico)
Timezone America/Puerto_Rico (UTC-4.0)
Stats Elevation 8 ft / 2 m (AMSL)
Location 18.438700° -66.002200°
Runways 2
Magnetic Variation 13.506° W

METAR

TJSJ 270256Z 05013G20KT 10SM FEW019 SCT060 BKN080 24/22 A3009

Decode

TAF

TAF TJSJ 262332Z 2700/2724 06008KT P6SM -SHRA VCTS SCT015CB SCT020 BKN040 FM271400 07012KT P6SM VCTS SCT025CB BKN050 FM272200 05008KT P6SM VCSH SCT025 BKN040

Decode

Departure Runways

ID Width Length Bearing (true/mag) Surface Threshold Overrun Markings Lighting
08 200 ft / 61 m 10,410 ft / 3,173 m 66.85° / 80.36° ASPHALT 404 ft / 123 m 394 ft / 120 m PREC-APP CENTERLINE EDGE THRESHOLD MALSR REIL-OMNI
10 151 ft / 46 m 8,006 ft / 2,440 m 90.14° / 103.65° CONCRETE 0 ft / 0 m 203 ft / 62 m PREC-APP CENTERLINE EDGE THRESHOLD MALSR REIL-OMNI
26 200 ft / 61 m 10,410 ft / 3,173 m 246.86° / 260.37° ASPHALT 400 ft / 122 m 397 ft / 121 m PREC-APP CENTERLINE EDGE THRESHOLD REIL-OMNI
28 151 ft / 46 m 8,006 ft / 2,440 m 270.15° / 283.65° CONCRETE 0 ft / 0 m 200 ft / 61 m PREC-APP CENTERLINE EDGE THRESHOLD REIL-OMNI

TDPD

Details ICAO TDPD (DOM)
Name Douglas-Charles
Region Dominica
Timezone America/Dominica (UTC-4.0)
Stats Elevation 73 ft / 22 m (AMSL)
Location 15.546600° -61.301400°
Runways 1
Magnetic Variation 15.113° W

METAR

Not found

TAF

TAF TDPD 262300Z 2700/2724 11011KT 9999 SCT018

Decode

Destination Runways

ID Width Length Bearing (true/mag) Surface Threshold Overrun Markings Lighting
09 148 ft / 45 m 5,704 ft / 1,739 m 69.87° / 84.98° ASPHALT 1,109 ft / 338 m 0 ft / 0 m PREC-APP EDGE THRESHOLD
27 148 ft / 45 m 5,704 ft / 1,739 m 249.87° / 264.98° ASPHALT 0 ft / 0 m 0 ft / 0 m PREC-APP EDGE THRESHOLD SALS

Popular Alternatives